SKVV/VVC METAR and TAF weather

Enter ICAO airport designator
Station Type Date Time Source
SKVV METAR 2019/12/08 11:00 UTC NOAA

SKVV 081100Z 00000KT 9999 SCT023 SCT200 24/21 A2991


Station Type Date Time Source
SKVV Decoded METAR 2019/12/08 11:00 UTC NOAA

Villavicencio / Vanguardia, Colombia (SKVV) 04-10N 073-37W 431M
Dec 08, 2019 - 06:00 AM EST / 2019.12.08 1100 UTC
Wind: Calm:0
Visibility: greater than 7 mile(s):0
Sky conditions: partly cloudy
Temperature: 75 F (24 C)
Dew Point: 69 F (21 C)
Relative Humidity: 83%
Pressure (altimeter): 29.91 in. Hg (1012 hPa)
ob: SKVV 081100Z 00000KT 9999 SCT023 SCT200 24/21 A2991
cycle: 11

Station Type Date Time Source
SKVV TAF UTC NOAA

Error!

Example: see airport list